Pagina principale
METAR-TAF:

METAR-TAF

Aeroporti :

Paganella, Italia

latitudine: 46-09N, longitudine: 011-02E, altezza: 2125 m

Osservazione

Il bollettino è stato emesso 42 minuti fa, alle 12:55 UTC
Vento 18 kt da nord
Temperature -2°C
Umidità 100%
Pressione 1011 hPa
Visibilità: 0600 m
nebbia che ghiaccia

METAR: LIVP 191255Z 36018KT 0600 FZFG VV/// M02/M02 Q1011 RMK MON INVIS VAL INVIS VIS MIN 0600

Ora: 15:37 (13:37 UTC)


TAF: mancante

Osservazioni e previsioni meteorologiche di più di 4000 aeroporti (messaggi METAR e TAF).

Le stazioni disponibili sono rappresentate dai dischi gialli e rossi sulla carta.

Puntare il mouse per vedere il nome della stazione.

Clicca sopra per visualizzare le osservazioni e previsioni meteorologiche.

Per cambiare la mappa : fare clic sui pulsanti verdi con una croce nera per ingrandire, il pulsante verde con un trattino per diminuire, o sulla freccia verde per le mappe adiacenti.


METAR-TAF: